Time;durP1;ratioP1;P1;durP2;ratioP2;P2;SDS_P1;SDS_P2;PMS_P1;PMS_P2;Temp;Humidity;BMP_temperature;BMP_pressure;BME280_temperature;BME280_humidity;BME280_pressure;Samples;Min_cycle;Max_cycle;Signal;HPM_P1;HPM_P2
2022/09/14 00:01:20;;;;;;;0.77;0.70;;;21.40;99.90;;;;;;5135366;27;20941;-71
2022/09/14 00:03:47;;;;;;;1.10;0.70;;;21.40;99.90;;;;;;5137944;27;20454;-70
2022/09/14 00:06:16;;;;;;;1.03;0.60;;;21.40;99.90;;;;;;5135660;27;20555;-71
2022/09/14 00:08:51;;;;;;;1.20;0.70;;;21.40;99.90;;;;;;5138355;27;20740;-71
2022/09/14 00:11:18;;;;;;;4.07;0.70;;;21.40;99.90;;;;;;5135510;27;20530;-71
2022/09/14 00:13:47;;;;;;;1.10;0.60;;;21.40;99.90;;;;;;5138029;27;20454;-71
2022/09/14 00:16:17;;;;;;;1.37;0.60;;;21.40;99.90;;;;;;5136293;27;20536;-71
2022/09/14 00:18:44;;;;;;;0.80;0.67;;;21.50;99.90;;;;;;5136991;27;20479;-71
2022/09/14 00:21:12;;;;;;;0.70;0.60;;;21.50;99.90;;;;;;5133627;27;20486;-71
2022/09/14 00:23:41;;;;;;;1.43;0.60;;;21.50;99.90;;;;;;5136696;27;20447;-71
2022/09/14 00:26:11;;;;;;;0.60;0.50;;;21.40;99.90;;;;;;5137011;27;20463;-72
2022/09/14 00:28:39;;;;;;;0.70;0.53;;;21.40;99.90;;;;;;5133948;27;20455;-71
2022/09/14 00:31:06;;;;;;;0.70;0.50;;;21.40;99.90;;;;;;5138032;27;20715;-71
2022/09/14 00:33:33;;;;;;;1.17;0.60;;;21.40;99.90;;;;;;5134832;27;20455;-72
2022/09/14 00:36:08;;;;;;;1.27;0.53;;;21.40;99.90;;;;;;5138671;27;20459;-71
2022/09/14 00:38:35;;;;;;;0.87;0.57;;;21.20;99.90;;;;;;5134376;27;20681;-71
2022/09/14 00:41:05;;;;;;;0.90;0.53;;;21.30;99.90;;;;;;5137447;27;20495;-70
2022/09/14 00:43:50;;;;;;;0.70;0.57;;;21.30;99.90;;;;;;5135671;27;20454;-71
2022/09/14 00:46:17;;;;;;;0.70;0.60;;;21.30;99.90;;;;;;5137022;27;20443;-71
2022/09/14 00:48:44;;;;;;;0.90;0.70;;;21.40;99.90;;;;;;5125364;27;20476;-70
2022/09/14 00:51:11;;;;;;;1.13;0.50;;;21.40;99.90;;;;;;5137156;27;20524;-71
2022/09/14 00:53:38;;;;;;;0.73;0.47;;;21.50;99.90;;;;;;5135265;27;20546;-71
2022/09/14 00:56:05;;;;;;;0.80;0.50;;;21.50;99.90;;;;;;5137549;27;20958;-71
2022/09/14 00:58:34;;;;;;;0.90;0.63;;;21.50;99.90;;;;;;5134854;27;20451;-72
2022/09/14 01:01:01;;;;;;;1.93;0.50;;;21.50;99.90;;;;;;5137504;27;20482;-71
2022/09/14 01:03:28;;;;;;;0.90;0.63;;;21.40;99.90;;;;;;5135083;27;20460;-71
2022/09/14 01:06:04;;;;;;;1.23;0.60;;;21.30;99.90;;;;;;5137281;27;20739;-72
2022/09/14 01:08:45;;;;;;;0.70;0.50;;;21.30;99.90;;;;;;5136628;27;20550;-71
2022/09/14 01:11:24;;;;;;;1.07;0.60;;;21.30;99.90;;;;;;5137551;27;20446;-71
2022/09/14 01:13:59;;;;;;;3.37;0.50;;;21.40;99.90;;;;;;5137172;27;20479;-71
2022/09/14 01:16:33;;;;;;;0.70;0.50;;;21.30;99.90;;;;;;5137346;27;20881;-71
2022/09/14 01:19:06;;;;;;;0.80;0.50;;;21.30;1.00;;;;;;5136949;27;20489;-71
2022/09/14 01:21:36;;;;;;;0.70;0.50;;;21.20;1.00;;;;;;5134029;27;20483;-72
2022/09/14 01:24:13;;;;;;;1.07;0.50;;;21.10;18.20;;;;;;5137182;27;20448;-71
2022/09/14 01:27:24;;;;;;;1.20;0.53;;;21.20;99.90;;;;;;5134639;27;20982;-71
2022/09/14 01:30:06;;;;;;;0.80;0.50;;;21.20;1.00;;;;;;5050049;28;20452;-71
2022/09/14 01:32:37;;;;;;;3.40;0.63;;;21.00;1.00;;;;;;5107233;28;20444;-71
2022/09/14 01:35:10;;;;;;;2.50;0.50;;;20.40;1.00;;;;;;5112874;28;20532;-70
2022/09/14 01:37:43;;;;;;;0.87;0.50;;;19.90;74.00;;;;;;5115679;28;20485;-71
2022/09/14 01:40:16;;;;;;;1.17;0.60;;;19.50;99.90;;;;;;5114584;28;20448;-70
2022/09/14 01:42:47;;;;;;;0.70;0.40;;;19.40;99.90;;;;;;5115640;28;20537;-69
2022/09/14 01:45:18;;;;;;;1.10;0.40;;;19.20;99.90;;;;;;5114572;28;20464;-70
2022/09/14 01:47:49;;;;;;;0.70;0.40;;;19.20;99.90;;;;;;5132970;28;20444;-69
2022/09/14 01:50:21;;;;;;;0.50;0.30;;;19.20;99.90;;;;;;5135058;28;20448;-69
2022/09/14 01:52:52;;;;;;;1.87;0.60;;;19.10;99.90;;;;;;5136560;28;20443;-69
2022/09/14 01:55:24;;;;;;;0.83;0.40;;;19.10;99.90;;;;;;5133097;28;20462;-71
2022/09/14 01:57:56;;;;;;;0.60;0.50;;;19.10;99.90;;;;;;5133577;28;20450;-71
2022/09/14 02:00:24;;;;;;;1.03;0.40;;;19.00;99.90;;;;;;5133192;28;20871;-71
2022/09/14 02:02:58;;;;;;;0.73;0.40;;;18.90;99.90;;;;;;5133801;28;20999;-71
2022/09/14 02:05:31;;;;;;;1.20;0.50;;;18.90;99.90;;;;;;5134024;28;20924;-71
2022/09/14 02:07:58;;;;;;;1.03;0.50;;;18.90;99.90;;;;;;5134350;28;20439;-71
2022/09/14 02:10:26;;;;;;;1.00;0.60;;;18.90;99.90;;;;;;5132836;28;20462;-71
2022/09/14 02:12:54;;;;;;;1.37;0.50;;;19.00;99.90;;;;;;5136061;28;20439;-70
2022/09/14 02:15:24;;;;;;;1.00;0.60;;;19.00;99.90;;;;;;5131044;28;20455;-69
2022/09/14 02:17:53;;;;;;;0.90;0.50;;;19.00;99.90;;;;;;5132830;28;20483;-72
2022/09/14 02:20:26;;;;;;;1.00;0.50;;;19.00;99.90;;;;;;5131720;28;20448;-70
2022/09/14 02:22:53;;;;;;;1.20;0.60;;;19.00;99.90;;;;;;5133064;28;20575;-69
2022/09/14 02:25:20;;;;;;;1.10;0.70;;;18.90;99.90;;;;;;5126218;28;20480;-69
2022/09/14 02:27:47;;;;;;;0.90;0.50;;;18.90;99.90;;;;;;5130325;28;20447;-72
2022/09/14 02:30:14;;;;;;;1.83;0.73;;;18.80;99.90;;;;;;5133640;28;20459;-72
2022/09/14 02:32:51;;;;;;;1.00;0.50;;;18.80;99.90;;;;;;5135974;28;20852;-72
2022/09/14 02:35:26;;;;;;;1.00;0.70;;;18.70;99.90;;;;;;5133332;28;20451;-71
2022/09/14 02:38:00;;;;;;;0.90;0.60;;;18.70;99.90;;;;;;5136085;28;20753;-71
2022/09/14 02:40:34;;;;;;;0.90;0.70;;;18.70;99.90;;;;;;5135729;28;20461;-71
2022/09/14 02:43:10;;;;;;;0.80;0.53;;;18.90;99.90;;;;;;5136272;28;20566;-71
2022/09/14 02:45:43;;;;;;;1.03;0.60;;;18.90;99.90;;;;;;5134177;28;20555;-71
2022/09/14 02:48:14;;;;;;;0.90;0.70;;;18.90;99.90;;;;;;5138390;27;20729;-71
2022/09/14 02:50:49;;;;;;;2.37;0.60;;;18.70;99.90;;;;;;5137464;27;20452;-71
2022/09/14 02:53:22;;;;;;;1.43;0.60;;;18.60;99.90;;;;;;5139580;27;20439;-71
2022/09/14 02:55:52;;;;;;;1.53;0.60;;;18.70;99.90;;;;;;5127518;27;20459;-71
2022/09/14 02:58:19;;;;;;;1.00;0.70;;;18.80;99.90;;;;;;5137441;27;20454;-71
2022/09/14 03:00:47;;;;;;;0.90;0.70;;;18.80;99.90;;;;;;5135077;27;20929;-71
2022/09/14 03:03:16;;;;;;;1.27;0.60;;;18.90;99.90;;;;;;5138382;27;20777;-71
2022/09/14 03:05:44;;;;;;;0.80;0.60;;;19.00;99.90;;;;;;5135809;27;20451;-71
2022/09/14 03:08:11;;;;;;;3.10;0.60;;;19.00;99.90;;;;;;5138846;27;20444;-71
2022/09/14 03:10:41;;;;;;;0.77;0.60;;;18.90;99.90;;;;;;5137007;27;20816;-71
2022/09/14 03:13:08;;;;;;;1.00;0.60;;;18.90;99.90;;;;;;5138538;27;20451;-71
2022/09/14 03:15:35;;;;;;;1.50;0.80;;;18.80;99.90;;;;;;5136257;27;20825;-71
2022/09/14 03:18:02;;;;;;;1.00;0.60;;;18.90;99.90;;;;;;5138288;27;20443;-71
2022/09/14 03:20:31;;;;;;;0.80;0.70;;;18.90;99.90;;;;;;5136544;27;20547;-71
2022/09/14 03:23:00;;;;;;;1.33;0.77;;;18.80;99.90;;;;;;5139109;27;20480;-71
2022/09/14 03:25:28;;;;;;;2.07;0.73;;;18.80;99.90;;;;;;5136482;27;20807;-71
2022/09/14 03:27:56;;;;;;;1.00;0.73;;;18.80;99.90;;;;;;5139113;27;20848;-71
2022/09/14 03:30:24;;;;;;;2.10;0.70;;;18.80;99.90;;;;;;5136971;27;20459;-71
2022/09/14 03:32:51;;;;;;;0.97;0.50;;;18.70;99.90;;;;;;5138639;27;20720;-71
2022/09/14 03:35:18;;;;;;;1.33;0.60;;;18.60;99.90;;;;;;5137483;27;20451;-71
2022/09/14 03:37:46;;;;;;;1.10;0.70;;;18.60;99.90;;;;;;5139641;27;20677;-71
2022/09/14 03:40:16;;;;;;;0.97;0.70;;;18.50;99.90;;;;;;5137088;27;20458;-71
2022/09/14 03:42:44;;;;;;;2.77;0.70;;;18.50;99.90;;;;;;5141324;27;20849;-71
2022/09/14 03:45:11;;;;;;;1.20;0.80;;;18.50;99.90;;;;;;5139259;27;20737;-71
2022/09/14 03:47:39;;;;;;;0.90;0.70;;;18.40;99.90;;;;;;5139511;27;20443;-70
2022/09/14 03:50:07;;;;;;;1.00;0.80;;;18.40;99.90;;;;;;5135305;27;20452;-72
2022/09/14 03:52:34;;;;;;;1.03;0.80;;;18.30;99.90;;;;;;5139214;27;20440;-71
2022/09/14 03:55:01;;;;;;;0.97;0.70;;;18.30;99.90;;;;;;5136442;27;20444;-71
2022/09/14 03:57:29;;;;;;;1.00;0.80;;;18.30;99.90;;;;;;5137989;27;20444;-70
2022/09/14 03:59:56;;;;;;;7.40;0.83;;;18.40;99.90;;;;;;5136093;27;20448;-71
2022/09/14 04:02:23;;;;;;;1.00;0.80;;;18.30;99.90;;;;;;5139484;27;20485;-71
2022/09/14 04:04:50;;;;;;;2.13;0.80;;;18.30;99.90;;;;;;5135547;27;20448;-72
2022/09/14 04:07:17;;;;;;;1.10;0.90;;;18.40;99.90;;;;;;5137845;27;20455;-71
2022/09/14 04:09:45;;;;;;;1.20;0.80;;;18.40;99.90;;;;;;5137613;27;20443;-71
2022/09/14 04:12:12;;;;;;;1.90;0.80;;;18.40;99.90;;;;;;5137329;27;20530;-71
2022/09/14 04:14:40;;;;;;;1.17;0.90;;;18.50;99.90;;;;;;5136625;27;20885;-71
2022/09/14 04:17:07;;;;;;;0.90;0.60;;;18.50;99.90;;;;;;5134937;27;20538;-71
2022/09/14 04:19:36;;;;;;;2.50;0.80;;;18.50;99.90;;;;;;5137280;27;20520;-71
2022/09/14 04:22:04;;;;;;;1.40;0.80;;;18.50;99.90;;;;;;5135806;27;20479;-71
2022/09/14 04:24:30;;;;;;;1.10;0.80;;;18.50;99.90;;;;;;5137778;27;20443;-71
2022/09/14 04:26:57;;;;;;;1.10;0.80;;;18.50;99.90;;;;;;5134160;27;20478;-70
2022/09/14 04:29:24;;;;;;;1.87;0.70;;;18.50;99.90;;;;;;5137751;27;20883;-71
2022/09/14 04:31:52;;;;;;;1.67;0.80;;;18.50;99.90;;;;;;5134079;27;20444;-71
2022/09/14 04:34:19;;;;;;;1.87;0.70;;;18.50;99.90;;;;;;5136511;27;20542;-71
2022/09/14 04:36:46;;;;;;;2.30;0.80;;;18.60;99.90;;;;;;5132920;27;20507;-71
2022/09/14 04:39:13;;;;;;;1.43;0.90;;;18.50;99.90;;;;;;5134657;27;20450;-71
2022/09/14 04:41:41;;;;;;;1.20;0.90;;;18.50;99.90;;;;;;5134868;27;20439;-71
2022/09/14 04:44:08;;;;;;;2.73;0.90;;;18.50;99.90;;;;;;5131854;27;20483;-71
2022/09/14 04:46:35;;;;;;;1.00;0.80;;;18.50;99.90;;;;;;5133132;27;20462;-71
2022/09/14 04:49:03;;;;;;;1.10;0.87;;;18.50;99.90;;;;;;5131701;27;20451;-72
2022/09/14 04:51:32;;;;;;;0.77;0.70;;;18.70;99.90;;;;;;5133985;27;20443;-72
2022/09/14 04:54:00;;;;;;;1.00;0.80;;;18.80;99.90;;;;;;5129499;27;20471;-71
2022/09/14 04:56:28;;;;;;;2.10;0.90;;;19.00;99.90;;;;;;5132194;27;20444;-71
2022/09/14 04:58:57;;;;;;;0.90;0.70;;;19.10;99.90;;;;;;5132116;27;20447;-72
2022/09/14 05:01:26;;;;;;;2.07;1.10;;;19.00;99.90;;;;;;5136586;27;20839;-71
2022/09/14 05:03:54;;;;;;;1.13;0.90;;;19.00;99.90;;;;;;5132667;27;20483;-72
2022/09/14 05:06:25;;;;;;;1.03;0.80;;;19.00;99.90;;;;;;5135846;27;20479;-71
2022/09/14 05:08:53;;;;;;;2.17;0.80;;;18.90;99.90;;;;;;5133325;27;20702;-72
2022/09/14 05:11:22;;;;;;;1.30;0.80;;;18.90;99.90;;;;;;5134435;27;20454;-71
2022/09/14 05:13:49;;;;;;;1.20;0.83;;;18.80;99.90;;;;;;5131617;27;20452;-71
2022/09/14 05:16:18;;;;;;;1.30;0.80;;;18.80;99.90;;;;;;5133704;27;20435;-72
2022/09/14 05:18:46;;;;;;;0.93;0.80;;;18.90;99.90;;;;;;5131441;27;20467;-71
2022/09/14 05:21:16;;;;;;;1.70;0.83;;;19.10;99.90;;;;;;5132143;27;20955;-72
2022/09/14 05:23:45;;;;;;;1.30;0.73;;;19.30;99.90;;;;;;5130547;27;20583;-72
2022/09/14 05:26:12;;;;;;;4.00;0.90;;;19.30;99.90;;;;;;5135824;27;20456;-72
2022/09/14 05:28:40;;;;;;;1.57;0.80;;;19.40;99.90;;;;;;5132914;27;20451;-71
2022/09/14 05:31:08;;;;;;;1.20;0.90;;;19.40;99.90;;;;;;5135450;27;20817;-71
2022/09/14 05:33:35;;;;;;;2.20;0.80;;;19.40;99.90;;;;;;5132262;28;20462;-70
2022/09/14 05:36:03;;;;;;;1.90;0.90;;;19.50;99.90;;;;;;5134720;28;20539;-71
2022/09/14 05:38:31;;;;;;;1.00;0.73;;;19.50;99.90;;;;;;5135310;28;20479;-70
2022/09/14 05:40:59;;;;;;;1.00;0.80;;;19.60;99.90;;;;;;5134283;28;20447;-70
2022/09/14 05:43:26;;;;;;;0.97;0.80;;;19.70;99.90;;;;;;5132669;28;20574;-71
2022/09/14 05:45:52;;;;;;;1.20;0.90;;;19.60;99.90;;;;;;5136384;28;20454;-71
2022/09/14 05:48:19;;;;;;;3.10;0.80;;;19.70;99.90;;;;;;5133989;28;20554;-71
2022/09/14 05:50:46;;;;;;;1.80;1.00;;;19.70;99.90;;;;;;5135218;28;20444;-71
2022/09/14 05:53:13;;;;;;;1.80;0.90;;;19.70;99.90;;;;;;5131220;28;20451;-71
2022/09/14 05:55:40;;;;;;;0.90;0.80;;;19.80;99.90;;;;;;5134242;28;20756;-71
2022/09/14 05:58:09;;;;;;;1.50;0.87;;;19.70;99.90;;;;;;5132577;28;20452;-70
2022/09/14 06:00:38;;;;;;;2.40;0.90;;;19.70;99.90;;;;;;5133372;28;20439;-70
2022/09/14 06:03:10;;;;;;;2.23;0.90;;;19.70;99.90;;;;;;5130652;28;21188;-70
2022/09/14 06:05:37;;;;;;;1.10;1.00;;;19.70;99.90;;;;;;5133855;28;20859;-70
2022/09/14 06:08:04;;;;;;;1.63;1.00;;;19.80;99.90;;;;;;5132380;28;20455;-72
2022/09/14 06:10:31;;;;;;;2.00;1.00;;;19.80;99.90;;;;;;5132416;28;20459;-70
2022/09/14 06:12:59;;;;;;;1.10;1.00;;;19.80;99.90;;;;;;5132234;28;20455;-70
2022/09/14 06:15:28;;;;;;;2.50;1.00;;;19.80;99.90;;;;;;5134277;28;20460;-69
2022/09/14 06:17:54;;;;;;;1.70;1.33;;;19.90;99.90;;;;;;5131014;28;20755;-70
2022/09/14 06:20:21;;;;;;;1.97;1.20;;;19.90;99.90;;;;;;5132555;28;20454;-70
2022/09/14 06:22:48;;;;;;;1.20;0.97;;;19.90;99.90;;;;;;5128678;27;20590;-69
2022/09/14 06:25:15;;;;;;;3.63;1.10;;;19.90;99.90;;;;;;5137973;27;20435;-69
2022/09/14 06:27:42;;;;;;;3.13;0.93;;;19.90;99.90;;;;;;5130837;27;20475;-69
2022/09/14 06:30:10;;;;;;;1.10;0.90;;;19.90;99.90;;;;;;5118465;27;20453;-69
2022/09/14 06:32:38;;;;;;;1.50;0.90;;;20.00;99.90;;;;;;5130786;27;20509;-68
2022/09/14 06:35:06;;;;;;;2.00;0.90;;;20.10;99.90;;;;;;5134615;27;20523;-69
2022/09/14 06:37:33;;;;;;;1.20;1.00;;;20.30;99.90;;;;;;5136610;27;20486;-68
2022/09/14 06:39:59;;;;;;;1.00;0.90;;;20.40;99.90;;;;;;5133717;27;20466;-68
2022/09/14 06:42:28;;;;;;;2.00;1.20;;;20.50;99.90;;;;;;5138815;27;20737;-70
2022/09/14 06:44:55;;;;;;;1.73;1.00;;;20.60;99.90;;;;;;5137744;27;20852;-70
2022/09/14 06:47:25;;;;;;;1.20;1.10;;;20.70;99.90;;;;;;5138172;27;20446;-70
2022/09/14 06:49:56;;;;;;;1.50;0.80;;;20.70;99.90;;;;;;5134562;27;20460;-70
2022/09/14 06:52:25;;;;;;;1.10;0.87;;;20.70;99.90;;;;;;5129855;27;20921;-70
2022/09/14 06:54:52;;;;;;;2.50;0.73;;;20.70;99.90;;;;;;5134931;27;20550;-69
2022/09/14 06:57:19;;;;;;;0.80;0.70;;;20.70;99.90;;;;;;5130771;27;20552;-69
2022/09/14 06:59:46;;;;;;;1.10;0.80;;;20.70;99.90;;;;;;5130563;27;21085;-69
2022/09/14 07:02:14;;;;;;;2.80;0.90;;;20.80;99.90;;;;;;5137749;27;20451;-70
2022/09/14 07:04:41;;;;;;;0.90;0.80;;;20.80;99.90;;;;;;5135754;27;20487;-69
2022/09/14 07:07:09;;;;;;;1.00;0.90;;;20.90;99.90;;;;;;5137980;27;20669;-70
2022/09/14 07:09:36;;;;;;;2.63;0.80;;;20.90;99.90;;;;;;5125074;27;20466;-71
2022/09/14 07:12:03;;;;;;;1.87;0.90;;;21.00;99.90;;;;;;5119929;27;20467;-70
2022/09/14 07:14:30;;;;;;;1.10;0.80;;;21.00;99.90;;;;;;5130785;27;20439;-70
2022/09/14 07:16:59;;;;;;;0.93;0.80;;;21.00;99.90;;;;;;5134846;27;20476;-70
2022/09/14 07:19:26;;;;;;;1.20;0.70;;;21.10;99.90;;;;;;5128879;27;20479;-70
2022/09/14 07:21:53;;;;;;;2.20;0.90;;;21.10;99.90;;;;;;5136864;27;20472;-70
2022/09/14 07:24:21;;;;;;;1.00;0.73;;;21.20;99.90;;;;;;5132735;27;20765;-70
2022/09/14 07:26:49;;;;;;;1.00;0.70;;;21.20;99.90;;;;;;5134009;27;20448;-70
2022/09/14 07:29:17;;;;;;;1.27;0.80;;;21.20;99.90;;;;;;5134787;27;20849;-70
2022/09/14 07:31:46;;;;;;;1.00;0.70;;;21.30;99.90;;;;;;5136341;27;20460;-70
2022/09/14 07:34:14;;;;;;;3.13;0.80;;;21.30;99.90;;;;;;5132760;27;20468;-70
2022/09/14 07:36:41;;;;;;;2.43;1.80;;;21.30;99.90;;;;;;5137656;27;20508;-70
2022/09/14 07:39:11;;;;;;;0.93;0.80;;;21.30;99.90;;;;;;5134929;27;20454;-70
2022/09/14 07:41:39;;;;;;;1.80;0.80;;;21.40;99.90;;;;;;5133363;27;20448;-70
2022/09/14 07:44:08;;;;;;;1.87;0.70;;;21.40;99.90;;;;;;5135076;27;20574;-70
2022/09/14 07:46:38;;;;;;;1.10;0.77;;;21.40;99.90;;;;;;5134291;27;20459;-70
2022/09/14 07:49:06;;;;;;;0.90;0.70;;;21.50;99.90;;;;;;5131753;27;20550;-69
2022/09/14 07:51:35;;;;;;;0.97;0.70;;;21.60;99.90;;;;;;5133425;27;20458;-70
2022/09/14 07:54:03;;;;;;;1.47;0.97;;;21.70;99.90;;;;;;5132067;27;20459;-70
2022/09/14 07:56:30;;;;;;;1.60;0.80;;;21.80;99.90;;;;;;5134328;27;20460;-69
2022/09/14 07:58:59;;;;;;;0.80;0.73;;;21.80;99.90;;;;;;5135188;27;20799;-69
2022/09/14 08:01:28;;;;;;;1.60;1.17;;;21.80;99.90;;;;;;5137862;27;20450;-69
2022/09/14 08:03:56;;;;;;;0.87;0.70;;;21.90;99.90;;;;;;5134722;27;20472;-70
2022/09/14 08:06:27;;;;;;;1.20;0.93;;;22.00;99.90;;;;;;5136937;27;20487;-69
2022/09/14 08:08:57;;;;;;;0.97;0.83;;;22.10;99.90;;;;;;5135229;27;20444;-70
2022/09/14 08:11:27;;;;;;;1.93;0.90;;;22.30;99.90;;;;;;5136890;27;20903;-69
2022/09/14 08:13:57;;;;;;;0.97;0.60;;;22.40;99.90;;;;;;5131652;27;20451;-69
2022/09/14 08:16:27;;;;;;;0.90;0.80;;;22.50;99.90;;;;;;5135255;27;20820;-70
2022/09/14 08:18:57;;;;;;;1.03;0.80;;;22.50;99.90;;;;;;5137385;27;20475;-69
2022/09/14 08:21:25;;;;;;;1.93;0.70;;;22.50;99.90;;;;;;5133827;27;20465;-70
2022/09/14 08:23:52;;;;;;;1.67;0.60;;;22.70;99.90;;;;;;5135303;27;20576;-69
2022/09/14 08:26:21;;;;;;;1.40;0.77;;;22.90;99.90;;;;;;5133829;27;20467;-69
2022/09/14 08:28:49;;;;;;;0.80;0.70;;;23.00;99.90;;;;;;5136725;27;20538;-70
2022/09/14 08:31:19;;;;;;;0.90;0.80;;;23.10;99.90;;;;;;5133871;27;20458;-70
2022/09/14 08:33:49;;;;;;;1.40;0.80;;;23.20;99.90;;;;;;5134771;27;20436;-70
2022/09/14 08:36:19;;;;;;;0.90;0.60;;;23.30;99.90;;;;;;5128909;27;20498;-70
2022/09/14 08:38:46;;;;;;;2.13;0.80;;;23.40;99.90;;;;;;5113895;27;20476;-71
2022/09/14 08:41:26;;;;;;;0.93;0.63;;;23.40;99.90;;;;;;5127552;27;20448;-70
2022/09/14 08:43:53;;;;;;;1.10;0.80;;;23.40;99.90;;;;;;5130642;27;20567;-70
2022/09/14 08:46:28;;;;;;;1.00;0.80;;;23.40;99.90;;;;;;5132338;27;20455;-70
2022/09/14 08:48:57;;;;;;;1.13;0.70;;;23.40;99.90;;;;;;5132541;27;20741;-70
2022/09/14 08:51:24;;;;;;;0.70;0.60;;;23.30;99.90;;;;;;5133346;27;20451;-70
2022/09/14 08:53:53;;;;;;;0.80;0.80;;;23.20;99.90;;;;;;5134786;27;20499;-70
2022/09/14 08:56:24;;;;;;;1.90;0.70;;;23.30;99.90;;;;;;5133227;27;20452;-70
2022/09/14 08:59:14;;;;;;;0.57;0.50;;;23.40;99.90;;;;;;5135689;27;20444;-69
2022/09/14 09:01:51;;;;;;;0.90;0.70;;;23.50;99.90;;;;;;5128346;27;20460;-70
2022/09/14 09:04:36;;;;;;;0.83;0.70;;;23.60;99.90;;;;;;5129263;27;20591;-70
2022/09/14 09:07:11;;;;;;;0.83;0.70;;;23.70;99.90;;;;;;5130523;27;20463;-75
2022/09/14 09:09:44;;;;;;;2.30;0.77;;;23.70;99.90;;;;;;5130796;27;20471;-74
2022/09/14 09:12:16;;;;;;;1.27;0.80;;;23.70;99.90;;;;;;5137177;27;20759;-73
2022/09/14 09:14:48;;;;;;;1.00;0.70;;;23.70;99.90;;;;;;5118935;27;20452;-75
2022/09/14 09:17:20;;;;;;;0.93;0.67;;;23.80;99.90;;;;;;5132910;27;20448;-74
2022/09/14 09:19:59;;;;;;;1.13;0.70;;;23.90;95.50;;;;;;5132304;27;20526;-73
2022/09/14 09:22:30;;;;;;;1.00;0.67;;;24.00;89.90;;;;;;5135724;27;20447;-73
2022/09/14 09:25:00;;;;;;;1.20;0.70;;;24.10;76.10;;;;;;5133017;27;21092;-73
2022/09/14 09:27:29;;;;;;;1.33;0.73;;;24.20;68.00;;;;;;5123691;27;20902;-72
2022/09/14 09:29:56;;;;;;;1.10;0.60;;;24.40;54.10;;;;;;5135423;27;20452;-72
2022/09/14 09:32:24;;;;;;;0.90;0.70;;;24.50;57.40;;;;;;5136979;27;20443;-72
2022/09/14 09:34:53;;;;;;;0.90;0.73;;;24.70;40.30;;;;;;5132589;27;20789;-73
2022/09/14 09:37:22;;;;;;;1.00;0.60;;;24.90;22.00;;;;;;5129601;27;20501;-73
2022/09/14 09:39:50;;;;;;;0.77;0.60;;;25.10;1.00;;;;;;5132499;28;20447;-73
2022/09/14 09:42:21;;;;;;;0.90;0.60;;;25.00;1.00;;;;;;5135256;28;20551;-73
2022/09/14 09:44:55;;;;;;;1.13;0.60;;;25.10;1.00;;;;;;5132644;28;20483;-73
2022/09/14 09:47:30;;;;;;;2.90;0.80;;;25.10;1.00;;;;;;5135266;28;20450;-73
2022/09/14 09:50:00;;;;;;;2.67;1.17;;;25.30;1.00;;;;;;5130421;28;21067;-72
2022/09/14 09:52:28;;;;;;;1.57;0.80;;;25.30;1.00;;;;;;5132744;28;20452;-72
2022/09/14 09:54:57;;;;;;;0.67;0.50;;;25.30;1.00;;;;;;5132366;28;20434;-72
2022/09/14 09:57:29;;;;;;;1.07;0.60;;;25.30;1.00;;;;;;5139476;27;20535;-72
2022/09/14 10:00:10;;;;;;;2.90;0.70;;;25.20;1.00;;;;;;5135386;27;20481;-73
2022/09/14 10:02:37;;;;;;;0.90;0.60;;;25.10;1.00;;;;;;5138671;27;20472;-75
2022/09/14 10:05:22;;;;;;;0.90;0.60;;;25.20;1.00;;;;;;5141651;27;20482;-76
2022/09/14 10:07:55;;;;;;;0.90;0.70;;;25.10;1.00;;;;;;5120093;28;20483;-76
2022/09/14 10:10:26;;;;;;;1.30;0.73;;;25.20;1.00;;;;;;5131787;27;20460;-75
2022/09/14 10:12:56;;;;;;;1.10;0.60;;;25.40;1.00;;;;;;5123827;27;20443;-75
2022/09/14 10:15:25;;;;;;;24.15;2.85;;;25.50;1.00;;;;;;5131352;27;20481;-75
2022/09/14 10:18:16;;;;;;;2.30;0.70;;;25.50;1.00;;;;;;5124428;27;20194;-74
2022/09/14 10:21:05;;;;;;;0.70;0.60;;;25.60;1.00;;;;;;5135874;27;20473;-75
2022/09/14 10:23:35;;;;;;;0.70;0.60;;;25.50;1.00;;;;;;5138455;27;20542;-75
2022/09/14 10:26:25;;;;;;;0.73;0.60;;;25.40;1.00;;;;;;5138486;27;20795;-75
2022/09/14 10:28:55;;;;;;;1.53;0.60;;;25.50;1.00;;;;;;5138283;27;20458;-75
2022/09/14 10:31:29;;;;;;;1.20;0.60;;;25.50;1.00;;;;;;5122310;27;20846;-74
2022/09/14 10:33:57;;;;;;;1.63;0.63;;;25.70;1.00;;;;;;5119311;28;20448;-72
2022/09/14 10:36:32;;;;;;;1.50;0.70;;;25.80;1.00;;;;;;5117985;27;20458;-74
2022/09/14 10:39:08;;;;;;;2.23;0.70;;;26.00;1.00;;;;;;5134287;27;20458;-74
2022/09/14 10:41:42;;;;;;;0.60;0.50;;;26.00;1.00;;;;;;5138708;27;20459;-73
2022/09/14 10:44:43;;;;;;;0.90;0.60;;;25.90;1.00;;;;;;5134462;27;20475;-73
2022/09/14 10:47:36;;;;;;;0.80;0.50;;;25.90;1.00;;;;;;5134998;27;20461;-73
2022/09/14 10:50:14;;;;;;;1.10;0.70;;;26.00;1.00;;;;;;5127771;27;20878;-75
2022/09/14 10:52:48;;;;;;;0.63;0.50;;;26.10;1.00;;;;;;5123026;27;20922;-75
2022/09/14 10:55:33;;;;;;;0.80;0.50;;;26.00;1.00;;;;;;5139726;27;20526;-73
2022/09/14 10:58:32;;;;;;;0.70;0.60;;;26.00;1.00;;;;;;5126657;27;20444;-75
2022/09/14 11:01:13;;;;;;;1.03;0.70;;;26.00;99.90;;;;;;5128310;27;20455;-75
2022/09/14 11:03:58;;;;;;;0.90;0.50;;;26.10;1.00;;;;;;5135687;27;20486;-75
2022/09/14 11:06:45;;;;;;;1.50;0.80;;;26.00;1.00;;;;;;5123393;27;20455;-76
2022/09/14 11:09:21;;;;;;;1.00;0.67;;;26.10;1.00;;;;;;5135918;27;20884;-75
2022/09/14 11:12:07;;;;;;;1.23;0.60;;;26.30;1.00;;;;;;5135683;27;20446;-76
2022/09/14 11:14:52;;;;;;;2.20;0.60;;;26.50;99.90;;;;;;5139004;27;20801;-76
2022/09/14 11:17:46;;;;;;;1.07;0.60;;;26.50;99.90;;;;;;5135770;27;20506;-76
2022/09/14 11:20:33;;;;;;;0.80;0.60;;;26.80;99.90;;;;;;5129470;27;20459;-75
2022/09/14 11:23:15;;;;;;;1.47;0.70;;;27.20;99.90;;;;;;5122103;27;20447;-75
2022/09/14 11:25:48;;;;;;;1.40;0.60;;;27.10;23.00;;;;;;5136156;27;20529;-75
2022/09/14 11:28:21;;;;;;;0.77;0.50;;;27.10;1.00;;;;;;5134511;27;20464;-75
2022/09/14 11:30:51;;;;;;;0.60;0.50;;;27.20;1.00;;;;;;5138512;27;20459;-75
2022/09/14 11:33:24;;;;;;;3.00;0.65;;;27.50;85.90;;;;;;5134886;27;20878;-75
2022/09/14 11:35:56;;;;;;;1.07;0.50;;;27.60;1.00;;;;;;5131309;27;20771;-75
2022/09/14 11:38:33;;;;;;;0.87;0.50;;;27.80;1.00;;;;;;5159810;27;20454;-74
2022/09/14 11:41:11;;;;;;;0.90;0.63;;;27.90;1.00;;;;;;5161676;27;20442;-76
2022/09/14 11:43:48;;;;;;;0.70;0.60;;;28.10;1.00;;;;;;5149773;27;20455;-75
2022/09/14 11:46:20;;;;;;;1.17;0.60;;;27.90;99.90;;;;;;5137707;27;21245;-75
2022/09/14 11:48:55;;;;;;;0.63;0.50;;;27.90;1.00;;;;;;5136217;27;20477;-75
2022/09/14 11:51:27;;;;;;;0.70;0.50;;;27.80;1.00;;;;;;5133585;27;20458;-75
2022/09/14 11:53:54;;;;;;;1.50;0.60;;;27.80;1.00;;;;;;5122872;27;20977;-74
2022/09/14 11:56:27;;;;;;;0.97;0.50;;;27.90;99.90;;;;;;5137729;27;20547;-75
2022/09/14 11:58:56;;;;;;;1.50;0.50;;;27.80;1.00;;;;;;5136838;27;20795;-74
2022/09/14 12:01:34;;;;;;;0.60;0.50;;;27.60;99.90;;;;;;5138170;27;20495;-75
2022/09/14 12:04:13;;;;;;;0.60;0.50;;;27.50;99.90;;;;;;5136177;27;20459;-73
2022/09/14 12:07:04;;;;;;;0.80;0.40;;;27.40;1.00;;;;;;5141359;27;20820;-74
2022/09/14 12:09:42;;;;;;;0.90;0.40;;;27.20;1.00;;;;;;5109504;27;20852;-75
2022/09/14 12:12:41;;;;;;;1.83;0.70;;;26.90;99.90;;;;;;5135264;27;20520;-73
2022/09/14 12:15:22;;;;;;;0.70;0.50;;;26.90;1.00;;;;;;5137790;27;20440;-76
2022/09/14 12:17:50;;;;;;;1.53;0.53;;;27.00;1.00;;;;;;5135060;27;20466;-74
2022/09/14 12:20:30;;;;;;;0.70;0.60;;;26.90;99.90;;;;;;5137736;27;20938;-74
2022/09/14 12:23:25;;;;;;;1.63;0.50;;;26.70;99.90;;;;;;5136114;27;20455;-74
2022/09/14 12:26:15;;;;;;;0.80;0.50;;;26.60;99.90;;;;;;5136768;27;20479;-75
2022/09/14 12:28:49;;;;;;;0.67;0.50;;;26.50;99.90;;;;;;5095741;27;20895;-73
2022/09/14 12:31:36;;;;;;;1.40;0.50;;;26.40;1.00;;;;;;5136542;27;20466;-74
2022/09/14 12:34:26;;;;;;;2.70;0.53;;;26.30;1.00;;;;;;5134992;27;20493;-74
2022/09/14 12:37:26;;;;;;;0.90;0.70;;;26.10;28.70;;;;;;5132897;27;20467;-74
2022/09/14 12:40:26;;;;;;;0.93;0.60;;;25.90;1.00;;;;;;5132810;27;20440;-74
2022/09/14 12:42:53;;;;;;;0.90;0.57;;;25.70;1.00;;;;;;5111545;28;20547;-73
2022/09/14 12:45:50;;;;;;;1.40;0.60;;;25.40;1.00;;;;;;5115795;28;20491;-73
2022/09/14 12:48:57;;;;;;;0.80;0.60;;;25.10;1.00;;;;;;5115779;28;20836;-76
2022/09/14 12:51:35;;;;;;;1.00;0.67;;;24.70;1.00;;;;;;5117227;28;20531;-73
2022/09/14 12:54:14;;;;;;;1.00;0.60;;;24.50;1.00;;;;;;5114246;28;20815;-74
2022/09/14 12:56:46;;;;;;;1.40;0.50;;;24.10;1.00;;;;;;5115937;28;20748;-74
2022/09/14 12:59:21;;;;;;;1.00;0.50;;;23.60;1.80;;;;;;5116507;28;20444;-74
2022/09/14 13:01:55;;;;;;;2.80;0.50;;;23.40;40.20;;;;;;5113713;28;20451;-74
2022/09/14 13:04:29;;;;;;;0.70;0.50;;;23.10;66.00;;;;;;5115729;28;20436;-74
2022/09/14 13:06:58;;;;;;;0.83;0.50;;;22.80;97.50;;;;;;5113669;28;20852;-74
2022/09/14 13:09:28;;;;;;;0.87;0.60;;;22.60;99.90;;;;;;5115587;28;20518;-74
2022/09/14 13:11:58;;;;;;;0.80;0.70;;;22.40;99.90;;;;;;5111458;28;21082;-74